Saturday, July 21, 2018, 8:49 PM EDT
Back to Local

KLEW, Auburn-lewiston

Location: Auburn, ME, United States Lat: 44.05
Local Time: 8:49 PM EDT ( 0:49 GMT) Lon: -70.283
Time Zone: US/Eastern Elev: 288 ft

Show me the last for .
Show Decoded

2018-07-21 19:56 METAR KLEW 212356Z AUTO 16005KT 10SM CLR 20/13 A3017 RMK AO2 SLP229 T02000128
                 10250 20200 53007 =
2018-07-21 18:56 METAR KLEW 212256Z AUTO 17007KT 10SM CLR 23/13 A3015 RMK AO2 SLP223 T02280128 =
2018-07-21 18:32 METAR KLEW 212232Z AUTO 18008KT 10SM FEW002 23/13 A3014 RMK AO2 =
2018-07-21 17:56 METAR KLEW 212156Z AUTO 18009KT 10SM 24/13 A3015 RMK AO2 SLP222 T02390128 =
2018-07-21 16:56 METAR KLEW 212056Z AUTO 18007KT 150V210 10SM CLR 24/13 A3015 RMK AO2 SLP222
                 T02440128 56003 =
2018-07-21 15:56 METAR KLEW 211956Z AUTO 19007KT 10SM FEW001 24/12 A3015 RMK AO2 SLP223 T02440122
                 =
2018-07-21 15:54 METAR KLEW 211954Z AUTO 19007KT 10SM FEW001 24/12 A3015 RMK AO2 =
2018-07-21 14:56 METAR KLEW 211856Z AUTO 20005KT 10SM CLR 24/13 A3016 RMK AO2 SLP225 T02440128 =
2018-07-21 14:26 METAR KLEW 211826Z AUTO 22007KT 10SM FEW001 24/13 A3017 RMK AO2 =
2018-07-21 13:56 METAR KLEW 211756Z AUTO 18008KT 10SM CLR 24/14 A3017 RMK AO2 SLP230 T02440139
                 10244 20156 58008 =
2018-07-21 12:56 METAR KLEW 211656Z AUTO 18007KT 10SM CLR 24/13 A3018 RMK AO2 SLP233 T02440133 =
2018-07-21 11:56 METAR KLEW 211556Z AUTO 19007KT 10SM CLR 24/13 A3019 RMK AO2 SLP235 T02390133 =
2018-07-21 10:56 METAR KLEW 211456Z AUTO VRB05KT 10SM CLR 23/13 A3019 RMK AO2 SLP238 T02280133
                 56004 =
2018-07-21 09:56 METAR KLEW 211356Z AUTO 00000KT 10SM CLR 21/15 A3020 RMK AO2 SLP239 T02110150 =
2018-07-21 08:56 METAR KLEW 211256Z AUTO 00000KT 10SM CLR 19/15 A3020 RMK AO2 SLP240 T01890150 =
2018-07-21 07:56 METAR KLEW 211156Z AUTO 00000KT 10SM CLR 16/14 A3021 RMK AO2 SLP242 T01560139
                 10156 20089 51006 =
2018-07-21 06:56 METAR KLEW 211056Z AUTO 00000KT 10SM CLR 12/11 A3020 RMK AO2 SLP242 T01220111 =
2018-07-21 05:56 METAR KLEW 210956Z AUTO 00000KT 10SM CLR 09/09 A3020 RMK AO2 SLP240 T00940089 =
2018-07-21 05:35 METAR KLEW 210935Z AUTO 00000KT 4SM BR CLR 09/09 A3019 RMK AO2 =
2018-07-21 05:26 METAR KLEW 210926Z AUTO 00000KT 1 1/2SM BR CLR 09/09 A3019 RMK AO2 =
2018-07-21 04:56 METAR KLEW 210856Z AUTO 00000KT 10SM CLR 10/09 A3019 RMK AO2 SLP236 T01000094
                 55001 =
2018-07-21 03:56 METAR KLEW 210756Z AUTO 00000KT 10SM CLR 11/10 A3018 RMK AO2 SLP234 T01060100 =
2018-07-21 02:56 METAR KLEW 210656Z AUTO 00000KT 10SM CLR 12/11 A3018 RMK AO2 SLP233 T01170111 =
2018-07-21 01:56 METAR KLEW 210556Z AUTO 00000KT 10SM CLR 12/12 A3019 RMK AO2 SLP236 T01170117
                 10217 20111 55000 =
2018-07-21 00:56 METAR KLEW 210456Z AUTO 00000KT 10SM CLR 12/12 A3019 RMK AO2 SLP236 T01220117 =
2018-07-20 22:56 METAR KLEW 210256Z AUTO 00000KT 10SM CLR 15/14 A3019 RMK AO2 SLP236 T01500139
                 50007 =
2018-07-20 21:56 METAR KLEW 210156Z AUTO 00000KT 10SM CLR 17/15 A3020 RMK AO2 SLP238 T01670150 =
2018-07-20 20:56 METAR KLEW 210056Z AUTO 13004KT 10SM CLR 19/16 A3018 RMK AO2 SLP234 T01890161 =

Support USWX by starting your Amazon purchase here.